Time;durP1;ratioP1;P1;durP2;ratioP2;P2;SDS_P1;SDS_P2;PMS_P1;PMS_P2;Temp;Humidity;BMP_temperature;BMP_pressure;BME280_temperature;BME280_humidity;BME280_pressure;Samples;Min_cycle;Max_cycle;Signal;HPM_P1;HPM_P2
2021/12/25 00:01:48;;;;;;;37.70;22.33;;;2.20;99.90;;;;;;4975750;28;20204;-69
2021/12/25 00:04:15;;;;;;;36.20;21.70;;;2.20;99.90;;;;;;4975600;28;20231;-72
2021/12/25 00:06:42;;;;;;;39.40;22.13;;;2.20;99.90;;;;;;4975646;28;20216;-71
2021/12/25 00:09:08;;;;;;;34.67;21.10;;;2.20;99.90;;;;;;4975552;28;20719;-68
2021/12/25 00:11:37;;;;;;;33.23;21.27;;;2.20;99.90;;;;;;4979883;28;20214;-69
2021/12/25 00:14:10;;;;;;;32.10;20.23;;;2.20;99.90;;;;;;4994729;28;20222;-70
2021/12/25 00:16:38;;;;;;;32.83;20.87;;;2.30;99.90;;;;;;4994589;28;20196;-70
2021/12/25 00:19:05;;;;;;;31.23;19.73;;;2.30;99.90;;;;;;4994637;28;20208;-69
2021/12/25 00:21:32;;;;;;;32.37;20.33;;;2.30;99.90;;;;;;4994575;28;20208;-69
2021/12/25 00:23:59;;;;;;;32.73;19.60;;;2.30;99.90;;;;;;4994664;28;20583;-69
2021/12/25 00:26:39;;;;;;;31.50;20.37;;;2.30;99.90;;;;;;4994395;28;20215;-69
2021/12/25 00:29:30;;;;;;;33.17;19.80;;;2.30;99.90;;;;;;4994505;28;20690;-69
2021/12/25 00:32:11;;;;;;;38.70;19.93;;;2.40;99.90;;;;;;4994316;28;20246;-69
2021/12/25 00:34:39;;;;;;;30.53;19.10;;;2.40;99.90;;;;;;4994584;28;20191;-71
2021/12/25 00:37:07;;;;;;;34.03;20.60;;;2.50;99.90;;;;;;4994544;28;20600;-68
2021/12/25 00:39:34;;;;;;;30.73;19.23;;;2.50;99.90;;;;;;4993036;28;20203;-69
2021/12/25 00:42:02;;;;;;;30.07;18.90;;;2.50;99.90;;;;;;4994078;28;20203;-70
2021/12/25 00:44:31;;;;;;;32.70;19.43;;;2.50;99.90;;;;;;4993792;28;20207;-70
2021/12/25 00:46:58;;;;;;;29.50;18.50;;;2.60;99.90;;;;;;4993951;28;20223;-70
2021/12/25 00:49:26;;;;;;;34.37;18.83;;;2.60;99.90;;;;;;4993633;28;20250;-68
2021/12/25 00:51:53;;;;;;;30.10;18.57;;;2.60;99.90;;;;;;4993947;28;20211;-68
2021/12/25 00:54:19;;;;;;;26.77;17.03;;;2.70;99.90;;;;;;4993577;28;20238;-69
2021/12/25 00:56:46;;;;;;;28.10;17.93;;;2.70;99.90;;;;;;4993702;28;20675;-69
2021/12/25 00:59:13;;;;;;;30.73;18.70;;;2.70;99.90;;;;;;4993042;28;20231;-68
2021/12/25 01:01:41;;;;;;;28.13;17.67;;;2.70;99.90;;;;;;4993707;28;20234;-68
2021/12/25 01:04:09;;;;;;;28.93;17.37;;;2.80;99.90;;;;;;4993314;28;20195;-69
2021/12/25 01:06:36;;;;;;;26.80;17.07;;;2.80;99.90;;;;;;4993737;28;20662;-68
2021/12/25 01:09:03;;;;;;;28.13;16.97;;;2.80;99.90;;;;;;4993663;28;20227;-70
2021/12/25 01:11:31;;;;;;;25.13;16.80;;;2.80;99.90;;;;;;4993497;28;20687;-68
2021/12/25 01:14:04;;;;;;;28.40;16.77;;;2.90;99.90;;;;;;4993345;28;20211;-69
2021/12/25 01:16:58;;;;;;;24.73;16.10;;;2.90;99.90;;;;;;4993233;28;20286;-70
2021/12/25 01:19:46;;;;;;;24.87;15.67;;;2.90;99.90;;;;;;4992891;28;20262;-69
2021/12/25 01:25:27;;;;;;;23.50;14.57;;;3.00;99.90;;;;;;4992481;28;20293;-69
2021/12/25 01:28:47;;;;;;;23.67;14.70;;;3.00;99.90;;;;;;4992986;28;20202;-68
2021/12/25 01:31:16;;;;;;;22.73;14.13;;;3.00;99.90;;;;;;4992727;28;20207;-69
2021/12/25 01:39:22;;;;;;;22.63;13.20;;;3.10;99.90;;;;;;4967139;28;20212;-68
2021/12/25 01:42:07;;;;;;;20.70;12.97;;;3.20;99.90;;;;;;4973670;28;20546;-69
2021/12/25 01:50:06;;;;;;;20.30;12.50;;;3.40;99.90;;;;;;4992489;28;20593;-68
2021/12/25 01:52:35;;;;;;;19.40;13.33;;;3.40;99.90;;;;;;4993074;28;20207;-68
2021/12/25 01:55:05;;;;;;;21.03;12.47;;;3.40;99.90;;;;;;4992636;28;20216;-69
2021/12/25 01:57:32;;;;;;;19.73;12.53;;;3.50;99.90;;;;;;4992810;28;20550;-69
2021/12/25 02:00:00;;;;;;;17.77;11.73;;;3.50;99.90;;;;;;4992599;28;20207;-69
2021/12/25 02:02:28;;;;;;;16.77;11.27;;;3.60;99.90;;;;;;4992348;28;20656;-69
2021/12/25 02:04:55;;;;;;;18.43;12.07;;;3.60;99.90;;;;;;4992772;28;20294;-69
2021/12/25 02:07:22;;;;;;;19.17;11.37;;;3.60;99.90;;;;;;4992517;28;20218;-69
2021/12/25 02:09:51;;;;;;;17.10;10.63;;;3.60;99.90;;;;;;4991939;28;20223;-69
2021/12/25 02:12:17;;;;;;;16.00;10.63;;;3.70;99.90;;;;;;4990359;28;20203;-68
2021/12/25 02:14:47;;;;;;;14.30;9.97;;;3.70;99.90;;;;;;4992579;28;20577;-70
2021/12/25 02:17:20;;;;;;;15.00;10.50;;;3.80;99.90;;;;;;4991993;28;20250;-69
2021/12/25 02:19:54;;;;;;;16.00;10.33;;;3.80;99.90;;;;;;4992558;28;20187;-69
2021/12/25 02:22:25;;;;;;;15.50;10.07;;;3.80;99.90;;;;;;4992283;28;20206;-69
2021/12/25 02:24:52;;;;;;;17.27;9.93;;;3.90;99.90;;;;;;4992578;28;20652;-69
2021/12/25 02:27:19;;;;;;;14.83;9.90;;;3.90;99.90;;;;;;4992025;28;20200;-68
2021/12/25 02:29:46;;;;;;;15.37;9.83;;;3.90;99.90;;;;;;4992264;28;20227;-68
2021/12/25 02:32:13;;;;;;;16.50;10.10;;;3.90;99.90;;;;;;4992372;28;20575;-69
2021/12/25 02:34:40;;;;;;;12.43;9.00;;;3.90;99.90;;;;;;4991988;28;20203;-69
2021/12/25 02:37:08;;;;;;;15.37;9.03;;;3.90;99.90;;;;;;4992062;28;20240;-68
2021/12/25 02:39:35;;;;;;;15.00;9.10;;;4.00;99.90;;;;;;4992061;28;20213;-68
2021/12/25 02:42:02;;;;;;;14.53;9.20;;;4.00;99.90;;;;;;4992115;28;20326;-70
2021/12/25 02:44:29;;;;;;;12.00;8.33;;;4.00;99.90;;;;;;4991834;28;20287;-69
2021/12/25 02:46:58;;;;;;;12.90;8.47;;;4.00;99.90;;;;;;4991506;28;20234;-69
2021/12/25 02:49:25;;;;;;;13.73;8.60;;;4.10;99.90;;;;;;4991803;28;20274;-69
2021/12/25 02:51:53;;;;;;;12.37;8.33;;;4.10;99.90;;;;;;4991970;28;20207;-70
2021/12/25 02:54:21;;;;;;;12.33;8.60;;;4.10;99.90;;;;;;4992059;28;20559;-69
2021/12/25 02:56:48;;;;;;;14.63;9.17;;;4.10;99.90;;;;;;4991827;28;20222;-69
2021/12/25 02:59:16;;;;;;;15.13;9.43;;;4.10;99.90;;;;;;4991421;28;20242;-69
2021/12/25 03:01:43;;;;;;;12.23;8.27;;;4.10;99.90;;;;;;4991889;28;20258;-69
2021/12/25 03:04:10;;;;;;;14.00;9.13;;;4.20;99.90;;;;;;4991137;28;20211;-69
2021/12/25 03:06:38;;;;;;;12.83;8.47;;;4.20;99.90;;;;;;4972487;28;20278;-70
2021/12/25 03:09:06;;;;;;;11.40;8.10;;;4.20;99.90;;;;;;4972092;28;20224;-68
2021/12/25 03:11:35;;;;;;;11.90;8.10;;;4.20;99.90;;;;;;4987016;28;20203;-69
2021/12/25 03:14:13;;;;;;;13.67;8.10;;;4.20;99.90;;;;;;4991599;28;20207;-70
2021/12/25 03:16:40;;;;;;;12.53;8.77;;;4.20;99.90;;;;;;4992034;28;20640;-69
2021/12/25 03:19:14;;;;;;;13.73;8.00;;;4.20;99.90;;;;;;4991895;28;20207;-69
2021/12/25 03:21:41;;;;;;;15.10;8.43;;;4.20;99.90;;;;;;4992050;28;20226;-68
2021/12/25 03:24:08;;;;;;;11.67;8.10;;;4.20;99.90;;;;;;4991380;28;20211;-68
2021/12/25 03:26:36;;;;;;;14.37;8.87;;;4.10;99.90;;;;;;4991618;28;20211;-69
2021/12/25 03:29:04;;;;;;;13.27;8.37;;;4.10;99.90;;;;;;4991528;28;20238;-69
2021/12/25 03:31:31;;;;;;;12.60;8.27;;;4.10;99.90;;;;;;4991906;28;20235;-69
2021/12/25 03:33:58;;;;;;;13.57;8.33;;;4.10;99.90;;;;;;4991618;28;20262;-69
2021/12/25 03:36:25;;;;;;;13.57;8.53;;;4.10;99.90;;;;;;4991465;28;20219;-68
2021/12/25 03:38:53;;;;;;;12.57;8.30;;;4.10;99.90;;;;;;4991686;28;20199;-69
2021/12/25 03:41:20;;;;;;;14.23;7.97;;;4.10;99.90;;;;;;4991662;28;20217;-68
2021/12/25 03:43:48;;;;;;;12.03;7.67;;;4.10;99.90;;;;;;4990969;28;20232;-69
2021/12/25 03:46:17;;;;;;;11.33;7.57;;;4.10;99.90;;;;;;4991214;28;20239;-68
2021/12/25 03:49:04;;;;;;;11.03;7.13;;;4.10;99.90;;;;;;4994843;28;20696;-68
2021/12/25 03:59:53;;;;;;;10.30;7.37;;;4.00;99.90;;;;;;4994021;28;20274;-70
2021/12/25 04:02:26;;;;;;;11.47;7.73;;;3.90;99.90;;;;;;4994401;28;20278;-69
2021/12/25 04:04:53;;;;;;;11.57;7.47;;;3.90;99.90;;;;;;4994570;28;20207;-68
2021/12/25 04:07:43;;;;;;;9.27;6.17;;;3.90;99.90;;;;;;4994429;28;20434;-68
2021/12/25 04:10:10;;;;;;;8.27;5.93;;;3.80;99.90;;;;;;4994625;28;20215;-69
2021/12/25 04:12:37;;;;;;;8.33;5.60;;;3.70;99.90;;;;;;4994601;28;20200;-69
2021/12/25 04:15:06;;;;;;;8.00;5.40;;;3.60;99.90;;;;;;4994431;28;20208;-68
2021/12/25 04:17:33;;;;;;;8.07;5.23;;;3.50;99.90;;;;;;4994691;28;20211;-68
2021/12/25 04:20:02;;;;;;;8.83;6.20;;;3.50;99.90;;;;;;4993550;28;20195;-68
2021/12/25 04:22:36;;;;;;;6.17;4.33;;;3.40;99.90;;;;;;4994406;28;20729;-68
2021/12/25 04:25:04;;;;;;;5.87;3.87;;;3.30;99.90;;;;;;4993302;28;20199;-69
2021/12/25 04:27:32;;;;;;;4.27;3.37;;;3.20;99.90;;;;;;4994250;28;20294;-69
2021/12/25 04:30:03;;;;;;;4.80;3.27;;;3.20;99.90;;;;;;4993742;28;20230;-68
2021/12/25 04:33:01;;;;;;;4.57;2.83;;;3.20;99.90;;;;;;4993903;28;20192;-68
2021/12/25 05:02:59;;;;;;;6.47;4.30;;;2.80;99.90;;;;;;4993123;28;20282;-69
2021/12/25 05:05:29;;;;;;;6.80;4.30;;;2.80;99.90;;;;;;4992721;28;20215;-69
2021/12/25 05:07:55;;;;;;;6.03;4.13;;;2.80;99.90;;;;;;4992890;28;20210;-68
2021/12/25 05:10:22;;;;;;;6.70;4.10;;;2.80;99.90;;;;;;4993120;28;20638;-70
2021/12/25 05:12:49;;;;;;;6.27;3.93;;;2.80;99.90;;;;;;4992975;28;20214;-68
2021/12/25 05:15:16;;;;;;;6.70;4.53;;;2.70;99.90;;;;;;4993206;28;20214;-69
2021/12/25 05:17:43;;;;;;;6.07;4.03;;;2.70;99.90;;;;;;4992875;28;20210;-68
2021/12/25 05:20:11;;;;;;;6.77;4.13;;;2.70;99.90;;;;;;4993263;28;20203;-68
2021/12/25 05:22:39;;;;;;;7.20;4.00;;;2.70;99.90;;;;;;4992946;28;20226;-70
2021/12/25 05:25:06;;;;;;;5.60;3.90;;;2.70;99.90;;;;;;4993107;28;20668;-69
2021/12/25 05:27:33;;;;;;;7.57;5.00;;;2.70;99.90;;;;;;4992011;28;20195;-69
2021/12/25 05:30:00;;;;;;;6.73;4.43;;;2.70;99.90;;;;;;4992951;28;20242;-68
2021/12/25 05:32:27;;;;;;;6.67;4.57;;;2.70;99.90;;;;;;4992765;28;20235;-68
2021/12/25 05:34:54;;;;;;;12.37;5.30;;;2.60;99.90;;;;;;4992722;28;20290;-67
2021/12/25 05:37:20;;;;;;;7.37;5.13;;;2.60;99.90;;;;;;4992481;28;20210;-68
2021/12/25 05:39:51;;;;;;;7.00;4.40;;;2.50;99.90;;;;;;4992586;28;20315;-68
2021/12/25 05:42:20;;;;;;;6.70;4.57;;;2.50;99.90;;;;;;4992773;28;20195;-70
2021/12/25 05:44:47;;;;;;;7.83;4.83;;;2.50;99.90;;;;;;4992571;28;20239;-69
2021/12/25 05:47:14;;;;;;;7.93;5.63;;;2.50;99.90;;;;;;4992415;28;20207;-69
2021/12/25 05:49:41;;;;;;;8.23;5.60;;;2.50;99.90;;;;;;4992238;28;20230;-69
2021/12/25 05:52:08;;;;;;;8.77;6.03;;;2.50;99.90;;;;;;4992645;28;20214;-69
2021/12/25 05:54:35;;;;;;;8.87;5.90;;;2.50;99.90;;;;;;4992502;28;20738;-70
2021/12/25 05:57:03;;;;;;;6.33;4.63;;;2.50;99.90;;;;;;4992733;28;20207;-71
2021/12/25 05:59:30;;;;;;;7.53;5.07;;;2.50;99.90;;;;;;4992171;28;20235;-69
2021/12/25 06:01:57;;;;;;;7.50;4.93;;;2.40;99.90;;;;;;4992527;28;20214;-70
2021/12/25 06:04:24;;;;;;;6.90;4.83;;;2.40;99.90;;;;;;4992329;28;20199;-69
2021/12/25 06:06:51;;;;;;;8.13;5.07;;;2.40;99.90;;;;;;4992736;28;20294;-70
2021/12/25 06:09:18;;;;;;;8.83;5.87;;;2.40;99.90;;;;;;4991851;28;20224;-68
2021/12/25 06:11:46;;;;;;;8.50;5.57;;;2.40;99.90;;;;;;4991999;28;20215;-69
2021/12/25 06:14:19;;;;;;;9.57;6.07;;;2.30;99.90;;;;;;4992628;28;20207;-69
2021/12/25 06:16:46;;;;;;;8.70;5.70;;;2.30;99.90;;;;;;4992307;28;20636;-70
2021/12/25 06:19:13;;;;;;;10.33;6.33;;;2.20;99.90;;;;;;4992221;28;20212;-70
2021/12/25 06:21:40;;;;;;;9.47;5.50;;;2.20;99.90;;;;;;4991911;28;20207;-69
2021/12/25 06:24:07;;;;;;;9.83;5.63;;;2.10;99.90;;;;;;4991914;28;20534;-69
2021/12/25 06:26:35;;;;;;;10.07;6.07;;;2.10;99.90;;;;;;4991917;28;20211;-69
2021/12/25 06:29:02;;;;;;;9.33;5.93;;;2.10;99.90;;;;;;4992034;28;20211;-69
2021/12/25 06:31:31;;;;;;;10.90;5.70;;;2.10;99.90;;;;;;4991549;28;20214;-69
2021/12/25 06:33:58;;;;;;;11.07;6.37;;;2.00;99.90;;;;;;4992267;28;20203;-71
2021/12/25 06:36:25;;;;;;;10.43;6.00;;;2.00;99.90;;;;;;4991491;28;20614;-70
2021/12/25 06:38:52;;;;;;;12.23;7.17;;;2.00;99.90;;;;;;4991993;28;20203;-69
2021/12/25 06:41:19;;;;;;;11.20;7.07;;;2.00;99.90;;;;;;4991832;28;20191;-69
2021/12/25 06:43:46;;;;;;;10.33;7.23;;;2.00;99.90;;;;;;4991830;28;20215;-70
2021/12/25 06:46:12;;;;;;;11.40;7.13;;;2.00;99.90;;;;;;4992206;28;20325;-70
2021/12/25 06:48:41;;;;;;;12.77;7.33;;;2.10;99.90;;;;;;4992137;28;20211;-70
2021/12/25 06:51:09;;;;;;;12.73;8.13;;;2.00;99.90;;;;;;4992122;28;20592;-69
2021/12/25 06:53:36;;;;;;;14.57;7.83;;;2.00;99.90;;;;;;4991531;28;20250;-70
2021/12/25 06:56:04;;;;;;;13.60;8.40;;;2.00;99.90;;;;;;4991569;28;20196;-69
2021/12/25 06:58:30;;;;;;;13.17;7.63;;;1.90;99.90;;;;;;4991575;28;20235;-73
2021/12/25 07:00:57;;;;;;;13.60;7.70;;;1.90;99.90;;;;;;4992228;28;20278;-70
2021/12/25 07:03:24;;;;;;;13.40;8.20;;;1.90;99.90;;;;;;4991149;28;20207;-70
2021/12/25 07:05:52;;;;;;;12.57;7.90;;;1.90;99.90;;;;;;4991192;28;20204;-69
2021/12/25 07:08:19;;;;;;;12.93;7.70;;;1.90;99.90;;;;;;4991538;28;20235;-69
2021/12/25 07:10:46;;;;;;;14.30;8.87;;;1.90;99.90;;;;;;4991923;28;20320;-70
2021/12/25 07:13:17;;;;;;;13.70;8.47;;;1.90;99.90;;;;;;4991343;28;20206;-69
2021/12/25 07:15:44;;;;;;;13.47;8.23;;;1.90;99.90;;;;;;4991997;28;20191;-70
2021/12/25 07:18:11;;;;;;;13.77;8.37;;;1.90;99.90;;;;;;4991763;28;20520;-70
2021/12/25 07:20:38;;;;;;;14.93;8.53;;;1.90;99.90;;;;;;4992260;28;20298;-70
2021/12/25 07:23:07;;;;;;;16.33;9.27;;;1.90;99.90;;;;;;4995453;28;20207;-70
2021/12/25 07:25:33;;;;;;;14.83;8.60;;;1.90;99.90;;;;;;4995389;28;20206;-70
2021/12/25 07:28:00;;;;;;;14.07;8.47;;;1.80;99.90;;;;;;4995431;28;20571;-71
2021/12/25 07:30:27;;;;;;;14.17;8.30;;;1.90;99.90;;;;;;4995255;28;20231;-69
2021/12/25 07:32:54;;;;;;;14.43;8.90;;;1.90;99.90;;;;;;4995217;28;20210;-71
2021/12/25 07:35:21;;;;;;;14.60;8.60;;;2.00;99.90;;;;;;4995019;28;20242;-72
2021/12/25 07:37:47;;;;;;;14.20;8.77;;;2.00;99.90;;;;;;4993432;28;20585;-70
2021/12/25 07:40:16;;;;;;;14.03;8.63;;;2.00;99.90;;;;;;4994103;28;20203;-70
2021/12/25 07:42:42;;;;;;;13.27;8.30;;;2.00;99.90;;;;;;4994443;28;20640;-71
2021/12/25 07:45:11;;;;;;;13.87;8.43;;;2.10;99.90;;;;;;4994447;28;20200;-69
2021/12/25 07:47:45;;;;;;;16.33;8.90;;;2.10;99.90;;;;;;4994836;28;20723;-72
2021/12/25 07:50:14;;;;;;;12.47;8.27;;;2.10;99.90;;;;;;4994276;28;20675;-69
2021/12/25 07:52:41;;;;;;;12.73;8.00;;;2.10;99.90;;;;;;4994461;28;20200;-70
2021/12/25 07:55:08;;;;;;;13.77;8.60;;;2.20;99.90;;;;;;4994534;28;20203;-71
2021/12/25 07:57:37;;;;;;;14.73;8.03;;;2.20;99.90;;;;;;4993762;28;20211;-69
2021/12/25 08:00:07;;;;;;;15.00;7.97;;;2.20;99.90;;;;;;4994091;28;20191;-71
2021/12/25 08:02:33;;;;;;;13.03;8.23;;;2.30;99.90;;;;;;4993849;28;20208;-71
2021/12/25 08:05:00;;;;;;;14.07;7.83;;;2.30;99.90;;;;;;4994310;28;20203;-72
2021/12/25 08:07:27;;;;;;;12.50;7.90;;;2.30;99.90;;;;;;4994198;28;20226;-73
2021/12/25 08:10:01;;;;;;;13.50;8.07;;;2.30;99.90;;;;;;4994426;28;20219;-72
2021/12/25 08:12:28;;;;;;;12.60;7.83;;;2.30;99.90;;;;;;4994106;28;20552;-71
2021/12/25 08:14:56;;;;;;;12.27;7.43;;;2.30;99.90;;;;;;4993138;28;20203;-71
2021/12/25 08:17:23;;;;;;;12.90;7.87;;;2.30;99.90;;;;;;4992087;28;20207;-72
2021/12/25 08:19:50;;;;;;;14.23;7.57;;;2.30;99.90;;;;;;4992794;28;20730;-73
2021/12/25 08:22:17;;;;;;;14.80;8.80;;;2.20;99.90;;;;;;4992486;28;20206;-72
2021/12/25 08:24:46;;;;;;;12.23;7.60;;;2.20;99.90;;;;;;4992782;28;20203;-73
2021/12/25 08:27:12;;;;;;;13.50;8.03;;;2.10;99.90;;;;;;4992775;28;20203;-72
2021/12/25 08:29:39;;;;;;;13.10;7.67;;;2.10;99.90;;;;;;4993857;28;20208;-72
2021/12/25 08:32:08;;;;;;;12.90;7.37;;;2.10;99.90;;;;;;4993494;28;20206;-74
2021/12/25 08:34:37;;;;;;;14.63;8.37;;;2.10;99.90;;;;;;4994691;28;20733;-72
2021/12/25 08:37:04;;;;;;;12.77;8.10;;;2.10;99.90;;;;;;4994810;28;20250;-72
2021/12/25 08:39:31;;;;;;;16.37;7.73;;;2.10;99.90;;;;;;4994653;28;20207;-72
2021/12/25 08:42:02;;;;;;;13.50;7.83;;;2.10;99.90;;;;;;4994216;28;20230;-71
2021/12/25 08:44:34;;;;;;;13.70;7.63;;;2.20;99.90;;;;;;4994588;28;20577;-71
2021/12/25 08:47:03;;;;;;;15.77;8.53;;;2.20;99.90;;;;;;4994221;28;20199;-76
2021/12/25 08:49:33;;;;;;;12.67;7.47;;;2.20;99.90;;;;;;4994301;28;20713;-72
2021/12/25 08:52:01;;;;;;;13.13;7.97;;;2.20;99.90;;;;;;4994553;28;20227;-71
2021/12/25 08:54:29;;;;;;;13.23;7.63;;;2.20;99.90;;;;;;4994059;28;20261;-72
2021/12/25 08:56:56;;;;;;;14.90;8.30;;;2.30;99.90;;;;;;4993649;28;20207;-73
2021/12/25 08:59:22;;;;;;;13.80;8.10;;;2.30;99.90;;;;;;4993567;28;20700;-71
2021/12/25 09:01:49;;;;;;;14.03;8.13;;;2.30;99.90;;;;;;4994198;28;20199;-71
2021/12/25 09:04:16;;;;;;;14.37;8.40;;;2.40;99.90;;;;;;4993646;28;20214;-73
2021/12/25 09:06:44;;;;;;;14.50;8.70;;;2.40;99.90;;;;;;4994071;28;20234;-73
2021/12/25 09:09:12;;;;;;;12.93;7.80;;;2.40;99.90;;;;;;4993503;28;20206;-70
2021/12/25 09:11:40;;;;;;;15.23;8.33;;;2.40;99.90;;;;;;4993654;28;20722;-71
2021/12/25 09:14:07;;;;;;;14.67;7.97;;;2.30;99.90;;;;;;4993472;28;20207;-71
2021/12/25 09:16:34;;;;;;;15.13;8.67;;;2.30;99.90;;;;;;4993908;28;20621;-74
2021/12/25 09:19:01;;;;;;;14.00;7.77;;;2.20;99.90;;;;;;4992788;28;20195;-72
2021/12/25 09:21:28;;;;;;;14.27;7.33;;;2.00;99.90;;;;;;4993592;28;20222;-73
2021/12/25 09:23:56;;;;;;;12.77;6.80;;;1.80;99.90;;;;;;4993258;28;20629;-73
2021/12/25 09:26:23;;;;;;;10.53;6.00;;;1.70;99.90;;;;;;4993695;28;20687;-70
2021/12/25 09:28:50;;;;;;;10.20;5.40;;;1.70;99.90;;;;;;4993315;28;20204;-71
2021/12/25 09:31:17;;;;;;;11.37;6.27;;;1.70;99.90;;;;;;4993187;28;20227;-72
2021/12/25 09:33:44;;;;;;;9.60;5.93;;;1.70;99.90;;;;;;4992898;28;20203;-70
2021/12/25 09:36:11;;;;;;;8.43;5.03;;;1.60;99.90;;;;;;4992556;28;20195;-70
2021/12/25 09:38:39;;;;;;;8.73;5.67;;;1.60;99.90;;;;;;4993347;28;20567;-71
2021/12/25 09:41:07;;;;;;;8.93;5.13;;;1.50;99.90;;;;;;4992569;28;20653;-70
2021/12/25 09:43:35;;;;;;;8.40;5.20;;;1.50;99.90;;;;;;4992598;28;20221;-73
2021/12/25 09:46:02;;;;;;;10.53;5.87;;;1.50;99.90;;;;;;4993083;28;20242;-71
2021/12/25 09:48:28;;;;;;;7.70;4.90;;;1.60;99.90;;;;;;4992791;28;20657;-72
2021/12/25 09:50:55;;;;;;;8.37;5.13;;;1.50;99.90;;;;;;4992434;28;20615;-71
2021/12/25 09:53:23;;;;;;;8.53;4.90;;;1.50;99.90;;;;;;4992551;28;20777;-70
2021/12/25 09:55:50;;;;;;;10.17;5.30;;;1.40;99.90;;;;;;4992259;28;20215;-70
2021/12/25 09:58:18;;;;;;;8.13;5.03;;;1.50;99.90;;;;;;4988057;28;20237;-71
2021/12/25 10:00:47;;;;;;;10.80;5.90;;;1.40;99.90;;;;;;4987034;28;20306;-71
2021/12/25 10:03:14;;;;;;;13.03;6.20;;;1.50;99.90;;;;;;4991570;28;20206;-72
2021/12/25 10:05:45;;;;;;;16.03;6.20;;;1.40;99.90;;;;;;4992976;28;20215;-71
2021/12/25 10:08:14;;;;;;;10.90;5.17;;;1.40;99.90;;;;;;4997026;28;20684;-72
2021/12/25 10:10:44;;;;;;;9.30;4.70;;;1.40;99.90;;;;;;4992633;28;20227;-73
2021/12/25 10:13:24;;;;;;;7.57;4.30;;;1.40;99.90;;;;;;4992655;28;20635;-73
2021/12/25 10:15:54;;;;;;;8.50;4.90;;;1.30;99.90;;;;;;4992523;28;20583;-70
2021/12/25 10:18:30;;;;;;;6.67;4.07;;;1.30;99.90;;;;;;4992148;28;20214;-72
2021/12/25 10:20:57;;;;;;;8.90;4.77;;;1.30;99.90;;;;;;4992427;28;20203;-72
2021/12/25 10:23:29;;;;;;;7.90;4.27;;;1.30;99.90;;;;;;4992610;28;20687;-71
2021/12/25 10:25:58;;;;;;;8.07;4.30;;;1.20;99.90;;;;;;4992212;28;20192;-73
2021/12/25 10:28:33;;;;;;;6.73;3.97;;;1.20;99.90;;;;;;4992495;28;20534;-73
2021/12/25 10:31:02;;;;;;;7.37;4.00;;;1.20;99.90;;;;;;4992073;28;20219;-72
2021/12/25 10:33:32;;;;;;;7.47;3.90;;;1.20;99.90;;;;;;4991831;28;20226;-71
2021/12/25 10:36:02;;;;;;;6.30;4.27;;;1.10;99.90;;;;;;4991849;28;20280;-70
2021/12/25 10:38:30;;;;;;;6.27;3.90;;;1.00;99.90;;;;;;4991867;28;20211;-71
2021/12/25 10:41:13;;;;;;;6.57;3.30;;;1.00;99.90;;;;;;4991202;28;20197;-71
2021/12/25 10:43:43;;;;;;;4.83;3.57;;;1.00;99.90;;;;;;4991969;28;20219;-71
2021/12/25 10:46:10;;;;;;;6.23;3.93;;;1.00;99.90;;;;;;4984930;28;20432;-73
2021/12/25 10:48:38;;;;;;;4.67;3.33;;;1.00;99.90;;;;;;4992085;28;20536;-71
2021/12/25 10:51:04;;;;;;;3.93;2.80;;;1.10;99.90;;;;;;4990909;28;20508;-72
2021/12/25 10:53:37;;;;;;;5.23;3.13;;;1.20;99.90;;;;;;4992100;28;20204;-70
2021/12/25 10:56:11;;;;;;;5.33;2.67;;;1.20;99.90;;;;;;4993318;28;20652;-70
2021/12/25 10:58:38;;;;;;;7.00;3.37;;;1.30;99.90;;;;;;4995332;28;20231;-70
2021/12/25 11:01:09;;;;;;;7.20;3.87;;;1.30;99.90;;;;;;4995736;28;20206;-70
2021/12/25 11:03:39;;;;;;;8.47;3.80;;;1.30;99.90;;;;;;4996067;28;20565;-70
2021/12/25 11:06:08;;;;;;;6.77;3.50;;;1.10;99.90;;;;;;4990734;28;20223;-71
2021/12/25 11:08:36;;;;;;;4.73;3.27;;;1.00;99.90;;;;;;4992691;28;20212;-71
2021/12/25 11:11:06;;;;;;;6.93;3.47;;;1.00;99.90;;;;;;4995670;28;20231;-71
2021/12/25 11:13:35;;;;;;;5.37;3.13;;;0.90;99.90;;;;;;4995093;28;20215;-70
2021/12/25 11:16:22;;;;;;;6.23;3.40;;;0.90;99.90;;;;;;4995758;28;20573;-70
2021/12/25 11:19:03;;;;;;;5.10;3.23;;;0.90;99.90;;;;;;4994477;28;20278;-70
2021/12/25 11:21:32;;;;;;;5.37;3.37;;;0.90;99.90;;;;;;4992589;28;20200;-71
2021/12/25 11:24:12;;;;;;;4.57;3.33;;;1.00;99.90;;;;;;4995242;28;20222;-69
2021/12/25 11:26:40;;;;;;;8.80;4.00;;;1.00;99.90;;;;;;4995630;28;20651;-69
2021/12/25 11:29:11;;;;;;;6.70;3.90;;;0.90;99.90;;;;;;4995251;28;20211;-71
2021/12/25 11:31:40;;;;;;;7.00;4.10;;;0.90;99.90;;;;;;4994186;28;20212;-70
2021/12/25 11:34:07;;;;;;;8.07;3.67;;;0.90;99.90;;;;;;4993916;28;20199;-71
2021/12/25 11:36:38;;;;;;;5.73;3.67;;;0.80;99.90;;;;;;4994661;28;20199;-70
2021/12/25 11:39:06;;;;;;;6.57;3.77;;;0.80;99.90;;;;;;4995006;28;20198;-71
2021/12/25 11:41:36;;;;;;;7.37;3.90;;;0.80;99.90;;;;;;4994906;28;20202;-71
2021/12/25 11:44:05;;;;;;;7.90;4.10;;;0.80;99.90;;;;;;4994275;28;20231;-71
2021/12/25 11:46:41;;;;;;;6.27;3.77;;;0.60;99.90;;;;;;4995107;28;20258;-70
2021/12/25 11:49:11;;;;;;;6.33;4.00;;;0.60;99.90;;;;;;5007018;28;20290;-71
2021/12/25 11:51:40;;;;;;;7.97;4.10;;;0.50;99.90;;;;;;5010779;28;20234;-74
2021/12/25 11:54:28;;;;;;;7.60;3.60;;;0.40;99.90;;;;;;4995466;28;20573;-70
2021/12/25 11:57:11;;;;;;;5.43;3.30;;;0.30;99.90;;;;;;4993876;28;20224;-73
2021/12/25 11:59:45;;;;;;;5.10;3.50;;;0.30;99.90;;;;;;4984352;28;20583;-65
2021/12/25 12:02:13;;;;;;;5.27;3.13;;;0.20;99.90;;;;;;4994889;28;20195;-65
2021/12/25 12:04:40;;;;;;;5.63;3.23;;;0.20;99.90;;;;;;4993069;28;20242;-65
2021/12/25 12:07:13;;;;;;;4.73;2.80;;;0.20;99.90;;;;;;4992192;28;20208;-67
2021/12/25 12:09:57;;;;;;;5.83;2.97;;;0.20;99.90;;;;;;4992073;28;20848;-66
2021/12/25 12:12:25;;;;;;;3.58;2.78;;;0.10;99.90;;;;;;4993500;28;20453;-67
2021/12/25 12:15:14;;;;;;;5.80;2.90;;;0.10;99.90;;;;;;4992390;28;20203;-66
2021/12/25 12:17:43;;;;;;;6.38;3.35;;;0.20;99.90;;;;;;4993397;28;20938;-65
2021/12/25 12:20:16;;;;;;;6.67;3.40;;;0.10;99.90;;;;;;4994780;28;20211;-66
2021/12/25 12:22:56;;;;;;;8.17;3.50;;;0.10;99.90;;;;;;4993969;28;20616;-64
2021/12/25 12:25:40;;;;;;;5.57;3.40;;;0.10;99.90;;;;;;4995084;28;20672;-65
2021/12/25 12:28:08;;;;;;;5.27;3.10;;;0.10;99.90;;;;;;4994397;28;20441;-66
2021/12/25 12:30:41;;;;;;;6.05;3.70;;;0.10;99.90;;;;;;4994302;28;20441;-67
2021/12/25 12:33:40;;;;;;;5.57;3.00;;;0.20;99.90;;;;;;4993369;28;20438;-66
2021/12/25 12:36:28;;;;;;;5.43;3.30;;;0.20;99.90;;;;;;4994716;28;20441;-64
2021/12/25 12:39:14;;;;;;;5.13;3.30;;;0.20;99.90;;;;;;4994901;28;20469;-66
2021/12/25 12:41:52;;;;;;;7.63;3.57;;;0.10;99.90;;;;;;4994095;28;20198;-66
2021/12/25 12:44:28;;;;;;;6.23;3.47;;;0.10;99.90;;;;;;4994420;28;20200;-64
2021/12/25 12:47:01;;;;;;;6.67;3.63;;;0.10;99.90;;;;;;4994064;28;20231;-64
2021/12/25 12:49:32;;;;;;;6.17;3.83;;;0.10;99.90;;;;;;4994046;28;20200;-65
2021/12/25 12:52:18;;;;;;;6.80;3.90;;;0.10;99.90;;;;;;4994426;28;20225;-65
2021/12/25 12:54:48;;;;;;;7.40;3.87;;;0.10;99.90;;;;;;4994288;28;20191;-63
2021/12/25 12:57:21;;;;;;;5.53;3.87;;;0.10;99.90;;;;;;4994466;28;20651;-64
2021/12/25 12:59:51;;;;;;;6.37;3.83;;;0.00;99.90;;;;;;4993795;28;20251;-64
2021/12/25 13:02:18;;;;;;;6.73;3.70;;;0.00;99.90;;;;;;4993918;28;20214;-65
2021/12/25 13:04:46;;;;;;;8.20;4.13;;;0.10;99.90;;;;;;4993895;28;20204;-63
2021/12/25 13:07:17;;;;;;;7.90;4.30;;;0.00;99.90;;;;;;4993940;28;20211;-63
2021/12/25 13:09:50;;;;;;;8.73;4.07;;;0.00;99.90;;;;;;4993912;28;20196;-65
2021/12/25 13:12:31;;;;;;;6.43;3.77;;;0.00;99.90;;;;;;4993920;28;20211;-66
2021/12/25 13:15:04;;;;;;;9.07;4.43;;;0.00;99.90;;;;;;4993852;28;20188;-64
2021/12/25 13:17:31;;;;;;;7.87;4.50;;;0.00;99.90;;;;;;4993865;28;20566;-66
2021/12/25 13:19:58;;;;;;;13.77;6.23;;;0.00;99.90;;;;;;4993246;28;20211;-63
2021/12/25 13:22:26;;;;;;;17.03;8.50;;;0.00;99.90;;;;;;4993741;28;20683;-66
2021/12/25 13:25:04;;;;;;;22.17;9.23;;;0.00;99.90;;;;;;4993500;28;20207;-66
2021/12/25 13:27:31;;;;;;;21.50;9.70;;;0.00;99.90;;;;;;4993730;28;20202;-64
2021/12/25 13:30:06;;;;;;;21.43;10.50;;;0.00;99.90;;;;;;4993796;28;20204;-64
2021/12/25 13:32:33;;;;;;;22.70;10.77;;;-0.10;99.90;;;;;;4993267;28;20570;-64
2021/12/25 13:34:59;;;;;;;24.47;11.67;;;-0.10;99.90;;;;;;4993293;28;20208;-66
2021/12/25 13:37:28;;;;;;;22.13;11.17;;;-0.10;99.90;;;;;;4993396;28;20558;-63
2021/12/25 13:39:54;;;;;;;24.73;10.67;;;-0.10;99.90;;;;;;4993268;28;20211;-64
2021/12/25 13:42:21;;;;;;;22.40;10.23;;;-0.10;99.90;;;;;;4993428;28;20203;-65
2021/12/25 13:44:50;;;;;;;21.20;10.70;;;-0.20;99.90;;;;;;4993378;28;20240;-64
2021/12/25 13:47:22;;;;;;;20.03;9.90;;;-0.20;99.90;;;;;;4993216;28;20725;-64
2021/12/25 13:49:51;;;;;;;26.67;10.70;;;-0.20;99.90;;;;;;4993437;28;20191;-66
2021/12/25 13:52:34;;;;;;;24.67;11.97;;;-0.30;99.90;;;;;;4992764;28;20242;-65